KDAA/DAA METAR and TAF weather

Enter ICAO airport designator
Station Type Date Time Source
KDAA METAR 2022/11/27 07:55 UTC NOAA

KDAA 270755Z AUTO 00000KT 10SM CLR 04/01 A2994 RMK AO2 SLP142 T00400005 $


Station Type Date Time Source
KDAA Decoded METAR 2022/11/27 07:55 UTC NOAA

Fort Belvoir, VA, United States (KDAA) 38-43N 077-11W
Nov 27, 2022 - 02:55 AM EST / 2022.11.27 0755 UTC
Wind: Calm:0
Visibility: 10 mile(s):0
Sky conditions: clear
Temperature: 39.2 F (4.0 C)
Dew Point: 32.9 F (0.5 C)
Relative Humidity: 77%
Pressure (altimeter): 29.94 in. Hg (1013 hPa)
ob: KDAA 270755Z AUTO 00000KT 10SM CLR 04/01 A2994 RMK AO2 SLP142 T00400005
cycle: 8

Station Type Date Time Source
KDAA TAF 2022/11/25 13:58 UTC NOAA

TAF KDAA 251300Z 2513/2619 VRB06KT 9000 -RA BKN035 OVC055 QNH2998INS
BECMG 2516/2517 29009KT 9999 NSW FEW030 SCT070 SCT120 QNH2989INS
BECMG 2520/2521 31020G25KT 9999 SKC QNH2991INS
BECMG 2523/2524 31009KT 9999 SKC QNH3000INS
BECMG 2611/2612 VRB06KT 9999 SKC QNH3011INS TX16/2519Z TN03/2611Z

Example: see airport list